createdAt,value
2023-04-01T00:02:38.331Z,4.87
2023-04-01T00:06:18.434Z,4.87
2023-04-01T00:09:53.634Z,4.86
2023-04-01T00:13:31.584Z,4.86
2023-04-01T00:17:09.236Z,4.86
2023-04-01T00:20:48.331Z,4.88
2023-04-01T00:24:24.693Z,4.90
2023-04-01T00:28:21.478Z,4.92
2023-04-01T00:31:39.995Z,4.93
2023-04-01T00:35:18.039Z,4.94
2023-04-01T00:38:55.566Z,4.95
2023-04-01T00:42:33.371Z,4.97
2023-04-01T00:46:10.838Z,4.98
2023-04-01T00:49:51.596Z,4.96
2023-04-01T00:53:26.559Z,4.97
2023-04-01T00:57:19.225Z,4.98
2023-04-01T01:00:41.872Z,5.01
2023-04-01T01:04:24.292Z,5.05
2023-04-01T01:08:22.475Z,5.08
2023-04-01T01:11:44.126Z,5.10
2023-04-01T01:15:37.430Z,5.12
2023-04-01T01:19:14.343Z,5.14
2023-04-01T01:23:13.359Z,5.16
2023-04-01T01:26:45.235Z,5.16
2023-04-01T01:30:10.644Z,5.18
2023-04-01T01:33:43.669Z,5.19
2023-04-01T01:37:12.402Z,5.20
2023-04-01T01:44:24.128Z,5.21
2023-04-01T01:48:02.316Z,5.20
2023-04-01T01:51:38.275Z,5.19
2023-04-01T01:55:48.462Z,5.17
2023-04-01T01:58:59.269Z,5.18
2023-04-01T02:02:33.192Z,5.18
2023-04-01T02:06:12.099Z,5.18
2023-04-01T02:09:47.095Z,5.18
2023-04-01T02:13:41.540Z,5.19
2023-04-01T02:17:06.592Z,5.21
2023-04-01T02:20:41.288Z,5.21
2023-04-01T02:24:17.432Z,5.22
2023-04-01T02:27:58.328Z,5.24
2023-04-01T02:31:33.455Z,5.26
2023-04-01T02:35:16.607Z,5.28
2023-04-01T02:38:49.089Z,5.31
2023-04-01T02:42:25.285Z,5.32
2023-04-01T02:46:03.374Z,5.34
2023-04-01T02:53:18.874Z,5.37
2023-04-01T02:56:56.674Z,5.39
2023-04-01T03:00:33.726Z,5.41
2023-04-01T03:04:11.216Z,5.43
2023-04-01T03:07:49.274Z,5.45
2023-04-01T03:11:27.351Z,5.47
2023-04-01T03:15:11.180Z,5.49
2023-04-01T03:18:42.010Z,5.52
2023-04-01T03:22:22.077Z,5.54
2023-04-01T03:25:57.176Z,5.55
2023-04-01T03:29:35.042Z,5.57
2023-04-01T03:33:13.531Z,5.58
2023-04-01T03:36:50.428Z,5.59
2023-04-01T03:40:27.917Z,5.59
2023-04-01T03:44:05.834Z,5.59
2023-04-01T03:47:43.754Z,5.59
2023-04-01T03:51:21.467Z,5.57
2023-04-01T03:54:58.890Z,5.57
2023-04-01T03:58:37.517Z,5.57
2023-04-01T04:02:14.095Z,5.55
2023-04-01T04:05:51.544Z,5.53
2023-04-01T04:09:32.316Z,5.52
2023-04-01T04:13:06.911Z,5.53
2023-04-01T04:16:44.733Z,5.52
2023-04-01T04:20:23.134Z,5.52
2023-04-01T04:24:01.599Z,5.51
2023-04-01T04:27:39.455Z,5.50
2023-04-01T04:31:23.409Z,5.50
2023-04-01T04:34:53.359Z,5.47
2023-04-01T04:38:31.808Z,5.47
2023-04-01T04:42:08.676Z,5.49
2023-04-01T04:45:46.928Z,5.48
2023-04-01T04:49:24.074Z,5.50
2023-04-01T04:53:02.040Z,5.49
2023-04-01T04:56:39.203Z,5.48
2023-04-01T05:00:17.414Z,5.47
2023-04-01T05:03:55.533Z,5.47
2023-04-01T05:07:32.750Z,5.46
2023-04-01T05:11:15.705Z,5.46
2023-04-01T05:14:47.846Z,5.43
2023-04-01T05:18:26.543Z,5.42
2023-04-01T05:22:03.333Z,5.40
2023-04-01T05:25:41.033Z,5.38
2023-04-01T05:29:18.606Z,5.37
2023-04-01T05:32:56.307Z,5.36
2023-04-01T05:36:33.597Z,5.35
2023-04-01T05:40:12.467Z,5.34
2023-04-01T05:43:49.485Z,5.34
2023-04-01T05:47:27.110Z,5.33
2023-04-01T05:51:06.196Z,5.32
2023-04-01T05:54:42.366Z,5.29
2023-04-01T05:58:19.745Z,5.29
2023-04-01T06:01:59.407Z,5.27
2023-04-01T06:05:41.745Z,5.24
2023-04-01T06:09:33.343Z,5.23
2023-04-01T06:13:28.964Z,5.24
2023-04-01T06:16:41.730Z,5.22
2023-04-01T06:20:38.523Z,5.21
2023-04-01T06:24:19.752Z,5.21
2023-04-01T06:27:43.913Z,5.20
2023-04-01T06:31:15.789Z,5.18
2023-04-01T06:35:17.301Z,5.17
2023-04-01T06:38:49.279Z,5.14
2023-04-01T06:42:31.913Z,5.12
2023-04-01T06:46:00.590Z,5.12
2023-04-01T06:49:50.909Z,5.12
2023-04-01T06:53:35.618Z,5.12
2023-04-01T06:57:38.466Z,5.10
2023-04-01T07:00:56.168Z,5.08
2023-04-01T07:04:35.251Z,5.08
2023-04-01T07:08:14.994Z,5.07
2023-04-01T07:11:44.573Z,5.06
2023-04-01T07:15:30.905Z,5.07
2023-04-01T07:19:18.341Z,5.07
2023-04-01T07:22:46.707Z,5.06
2023-04-01T07:26:24.272Z,5.05
2023-04-01T07:29:58.771Z,5.06
2023-04-01T07:33:45.038Z,5.06
2023-04-01T07:37:29.304Z,5.06
2023-04-01T07:41:13.910Z,5.07
2023-04-01T07:44:51.886Z,5.09
2023-04-01T07:48:41.743Z,5.09
2023-04-01T07:52:06.253Z,5.10
2023-04-01T07:55:23.509Z,5.13
2023-04-01T07:58:59.792Z,5.14
2023-04-01T08:03:10.746Z,5.14
2023-04-01T08:06:41.213Z,5.13
2023-04-01T08:10:32.134Z,5.14
2023-04-01T08:14:15.712Z,5.14
2023-04-01T08:18:08.129Z,5.16
2023-04-01T08:21:36.669Z,5.18
2023-04-01T08:24:55.366Z,5.19
2023-04-01T08:28:46.546Z,5.17
2023-04-01T08:32:33.636Z,5.16
2023-04-01T08:35:57.121Z,5.17
2023-04-01T08:39:35.338Z,5.17
2023-04-01T08:43:18.171Z,5.17
2023-04-01T08:46:42.582Z,5.19
2023-04-01T08:50:43.709Z,5.21
2023-04-01T08:54:27.080Z,5.22
2023-04-01T08:57:53.985Z,5.21
2023-04-01T09:01:32.876Z,5.17
2023-04-01T09:05:31.842Z,5.16
2023-04-01T09:09:01.752Z,5.15
2023-04-01T09:12:41.797Z,5.13
2023-04-01T09:16:23.720Z,5.12
2023-04-01T09:19:32.973Z,5.13
2023-04-01T09:23:36.036Z,5.14
2023-04-01T09:27:13.693Z,5.16
2023-04-01T09:31:01.633Z,5.16
2023-04-01T09:34:12.142Z,5.17
2023-04-01T09:37:48.127Z,5.18
2023-04-01T09:41:29.966Z,5.19
2023-04-01T09:45:17.963Z,5.15
2023-04-01T09:49:12.700Z,5.14
2023-04-01T09:52:40.257Z,5.16
2023-04-01T09:56:41.881Z,5.17
2023-04-01T10:00:01.773Z,5.19
2023-04-01T10:03:39.268Z,5.20
2023-04-01T10:07:33.288Z,5.20
2023-04-01T10:11:01.833Z,5.22
2023-04-01T10:14:39.463Z,5.22
2023-04-01T10:18:27.051Z,5.20
2023-04-01T10:22:06.867Z,5.20
2023-04-01T10:25:32.695Z,5.20
2023-04-01T10:29:03.945Z,5.21
2023-04-01T10:32:43.652Z,5.22
2023-04-01T10:36:36.063Z,5.22
2023-04-01T10:40:18.284Z,5.22
2023-04-01T10:44:00.662Z,5.23
2023-04-01T10:47:53.720Z,5.24
2023-04-01T10:51:20.230Z,5.24
2023-04-01T10:55:10.629Z,5.24
2023-04-01T11:03:23.392Z,5.22
2023-04-01T11:07:08.141Z,5.21
2023-04-01T11:10:29.953Z,5.20
2023-04-01T11:14:36.210Z,5.20
2023-04-01T11:17:47.059Z,5.20
2023-04-01T11:21:15.575Z,5.21
2023-04-01T11:25:17.353Z,5.22
2023-04-01T11:29:01.639Z,5.21
2023-04-01T11:36:36.372Z,5.20
2023-04-01T11:40:07.739Z,5.21
2023-04-01T11:44:08.350Z,5.19
2023-04-01T11:48:03.534Z,5.18
2023-04-01T11:51:28.068Z,5.17
2023-04-01T11:55:30.026Z,5.17
2023-04-01T11:58:44.088Z,5.12
2023-04-01T12:02:31.924Z,5.10
2023-04-01T12:06:16.774Z,5.08
2023-04-01T12:09:59.247Z,5.06
2023-04-01T12:13:16.075Z,5.05
2023-04-01T12:17:14.420Z,5.04
2023-04-01T12:20:43.317Z,5.04
2023-04-01T12:24:10.398Z,5.04
2023-04-01T12:28:01.287Z,5.04
2023-04-01T12:31:30.955Z,5.05
2023-04-01T12:35:49.587Z,5.01
2023-04-01T12:39:42.310Z,4.97
2023-04-01T12:43:06.215Z,4.94
2023-04-01T12:46:33.718Z,4.95
2023-04-01T12:50:27.630Z,4.97
2023-04-01T12:53:46.239Z,4.96
2023-04-01T12:57:17.440Z,4.96
2023-04-01T13:01:29.525Z,4.99
2023-04-01T13:04:56.956Z,5.02
2023-04-01T13:08:08.588Z,5.02
2023-04-01T13:12:37.324Z,5.04
2023-04-01T13:15:57.042Z,5.03
2023-04-01T13:19:21.916Z,5.02
2023-04-01T13:23:15.386Z,5.01
2023-04-01T13:27:08.876Z,5.00
2023-04-01T13:30:28.284Z,4.99
2023-04-01T13:34:18.409Z,5.00
2023-04-01T13:37:37.475Z,4.98
2023-04-01T13:41:26.619Z,4.98
2023-04-01T13:44:55.803Z,4.97
2023-04-01T13:48:42.738Z,4.98
2023-04-01T13:52:17.994Z,4.98
2023-04-01T13:55:48.728Z,4.97
2023-04-01T13:59:40.850Z,4.94
2023-04-01T14:03:28.306Z,4.94
2023-04-01T14:06:48.929Z,4.95
2023-04-01T14:11:04.406Z,4.95
2023-04-01T14:14:35.375Z,4.93
2023-04-01T14:21:41.759Z,4.93
2023-04-01T14:25:37.449Z,4.92
2023-04-01T14:29:01.170Z,4.91
2023-04-01T14:32:44.900Z,4.89
2023-04-01T14:36:37.409Z,4.89
2023-04-01T14:39:58.689Z,4.88
2023-04-01T14:43:22.929Z,4.88
2023-04-01T14:47:16.135Z,4.86
2023-04-01T14:50:46.312Z,4.86
2023-04-01T14:54:12.582Z,4.86
2023-04-01T14:58:19.575Z,4.86
2023-04-01T15:01:25.446Z,4.86
2023-04-01T15:05:16.303Z,4.86
2023-04-01T15:08:52.776Z,4.86
2023-04-01T15:12:59.398Z,4.85
2023-04-01T15:16:27.805Z,4.84
2023-04-01T15:19:51.151Z,4.84
2023-04-01T15:23:53.867Z,4.83
2023-04-01T15:27:54.542Z,4.83
2023-04-01T15:31:07.807Z,4.82
2023-04-01T15:34:38.806Z,4.80
2023-04-01T15:38:21.750Z,4.79
2023-04-01T15:42:11.175Z,4.78
2023-04-01T15:45:36.729Z,4.78
2023-04-01T15:49:39.089Z,4.77
2023-04-01T15:53:10.650Z,4.76
2023-04-01T15:56:28.429Z,4.75
2023-04-01T16:00:41.135Z,4.75
2023-04-01T16:03:51.797Z,4.74
2023-04-01T16:07:32.170Z,4.73
2023-04-01T16:11:06.563Z,4.71
2023-04-01T16:14:42.874Z,4.68
2023-04-01T16:18:28.125Z,4.66
2023-04-01T16:22:02.448Z,4.65
2023-04-01T16:25:36.166Z,4.65
2023-04-01T16:29:25.951Z,4.66
2023-04-01T16:32:58.646Z,4.65
2023-04-01T16:36:28.280Z,4.65
2023-04-01T16:40:38.109Z,4.64
2023-04-01T16:43:40.917Z,4.63
2023-04-01T16:47:22.748Z,4.61
2023-04-01T16:51:02.398Z,4.59
2023-04-01T16:54:50.291Z,4.60
2023-04-01T16:58:15.691Z,4.60
2023-04-01T17:01:55.531Z,4.61
2023-04-01T17:05:51.693Z,4.60
2023-04-01T17:09:46.189Z,4.59
2023-04-01T17:12:59.512Z,4.58
2023-04-01T17:16:43.557Z,4.56
2023-04-01T17:20:41.001Z,4.56
2023-04-01T17:24:19.611Z,4.56
2023-04-01T17:27:35.414Z,4.55
2023-04-01T17:31:12.301Z,4.55
2023-04-01T17:35:01.593Z,4.55
2023-04-01T17:38:52.063Z,4.55
2023-04-01T17:42:16.425Z,4.59
2023-04-01T17:45:59.472Z,4.61
2023-04-01T17:49:21.606Z,4.63
2023-04-01T17:52:55.571Z,4.63
2023-04-01T17:56:37.308Z,4.63
2023-04-01T18:00:17.382Z,4.63
2023-04-01T18:04:10.205Z,4.65
2023-04-01T18:07:38.529Z,4.65
2023-04-01T18:11:22.090Z,4.63
2023-04-01T18:14:43.829Z,4.64
2023-04-01T18:18:48.578Z,4.63
2023-04-01T18:22:29.130Z,4.64
2023-04-01T18:26:04.022Z,4.62
2023-04-01T18:29:24.277Z,4.61
2023-04-01T18:33:35.414Z,4.61
2023-04-01T18:37:12.135Z,4.61
2023-04-01T18:40:51.989Z,4.61
2023-04-01T18:44:28.059Z,4.61
2023-04-01T18:47:59.336Z,4.62
2023-04-01T18:51:45.301Z,4.62
2023-04-01T18:55:03.522Z,4.62
2023-04-01T18:59:03.412Z,4.62
2023-04-01T19:02:42.307Z,4.62
2023-04-01T19:05:58.049Z,4.61
2023-04-01T19:09:46.151Z,4.60
2023-04-01T19:13:25.927Z,4.59
2023-04-01T19:17:05.034Z,4.58
2023-04-01T19:21:03.028Z,4.59
2023-04-01T19:24:38.308Z,4.59
2023-04-01T19:27:52.288Z,4.60
2023-04-01T19:31:38.436Z,4.58
2023-04-01T19:35:04.961Z,4.59
2023-04-01T19:38:43.363Z,4.57
2023-04-01T19:42:23.200Z,4.55
2023-04-01T19:46:11.051Z,4.55
2023-04-01T19:49:47.201Z,4.53
2023-04-01T19:53:29.350Z,4.51
2023-04-01T19:57:21.979Z,4.47
2023-04-01T20:00:49.539Z,4.44
2023-04-01T20:04:38.440Z,4.41
2023-04-01T20:08:34.770Z,4.39
2023-04-01T20:11:57.435Z,4.35
2023-04-01T20:15:46.414Z,4.29
2023-04-01T20:18:58.885Z,4.23
2023-04-01T20:22:50.273Z,4.17
2023-04-01T20:26:11.836Z,4.16
2023-04-01T20:30:15.128Z,4.15
2023-04-01T20:33:36.444Z,4.15
2023-04-01T20:37:16.469Z,4.16
2023-04-01T20:40:45.893Z,4.17
2023-04-01T20:44:17.969Z,4.17
2023-04-01T20:48:03.493Z,4.14
2023-04-01T20:51:37.099Z,4.14
2023-04-01T20:55:19.496Z,4.17
2023-04-01T20:59:03.570Z,4.16
2023-04-01T21:06:29.272Z,4.16
2023-04-01T21:10:22.738Z,4.18
2023-04-01T21:13:34.129Z,4.18
2023-04-01T21:17:40.940Z,4.18
2023-04-01T21:21:16.873Z,4.16
2023-04-01T21:24:49.357Z,4.15
2023-04-01T21:28:16.545Z,4.13
2023-04-01T21:32:14.076Z,4.13
2023-04-01T21:35:37.795Z,4.13
2023-04-01T21:39:23.589Z,4.13
2023-04-01T21:42:57.759Z,4.15
2023-04-01T21:46:26.684Z,4.16
2023-04-01T21:50:23.193Z,4.18
2023-04-01T21:54:02.030Z,4.20
2023-04-01T21:57:40.963Z,4.21
2023-04-01T22:00:48.024Z,4.22
2023-04-01T22:04:38.751Z,4.24
2023-04-01T22:08:00.220Z,4.26
2023-04-01T22:12:04.729Z,4.28
2023-04-01T22:15:23.456Z,4.31
2023-04-01T22:19:15.823Z,4.34
2023-04-01T22:22:33.452Z,4.37
2023-04-01T22:26:18.199Z,4.39
2023-04-01T22:30:02.484Z,4.38
2023-04-01T22:33:54.492Z,4.39
2023-04-01T22:37:04.363Z,4.41
2023-04-01T22:40:55.244Z,4.43
2023-04-01T22:44:37.953Z,4.46
2023-04-01T22:47:53.483Z,4.47
2023-04-01T22:51:55.302Z,4.48
2023-04-01T22:55:35.572Z,4.47
2023-04-01T22:58:56.132Z,4.48
2023-04-01T23:02:37.126Z,4.48
2023-04-01T23:06:05.902Z,4.49
2023-04-01T23:09:41.135Z,4.48
2023-04-01T23:13:26.881Z,4.48
2023-04-01T23:17:16.700Z,4.47
2023-04-01T23:20:52.559Z,4.47
2023-04-01T23:24:36.614Z,4.46
2023-04-01T23:28:15.829Z,4.46
2023-04-01T23:31:46.263Z,4.47
2023-04-01T23:35:18.084Z,4.46
2023-04-01T23:38:49.953Z,4.45
2023-04-01T23:42:41.566Z,4.44
2023-04-01T23:46:04.745Z,4.43
2023-04-01T23:49:45.270Z,4.44
2023-04-01T23:53:21.708Z,4.44
2023-04-01T23:56:56.654Z,4.44
